sensor_id;sensor_type;location;lat;lon;timestamp;P1;durP1;ratioP1;P2;durP2;ratioP2
31061;SDS011;17724;53.546;9.974;2023-07-13T00:02:55;5.67;;;1.90;;
31061;SDS011;17724;53.546;9.974;2023-07-13T00:06:55;6.20;;;1.90;;
31061;SDS011;17724;53.546;9.974;2023-07-13T00:10:56;5.60;;;1.90;;
31061;SDS011;17724;53.546;9.974;2023-07-13T00:14:57;6.23;;;1.70;;
31061;SDS011;17724;53.546;9.974;2023-07-13T00:18:58;6.00;;;2.30;;
31061;SDS011;17724;53.546;9.974;2023-07-13T00:23:00;5.80;;;1.93;;
31061;SDS011;17724;53.546;9.974;2023-07-13T00:27:01;5.80;;;1.77;;
31061;SDS011;17724;53.546;9.974;2023-07-13T00:31:01;5.20;;;1.47;;
31061;SDS011;17724;53.546;9.974;2023-07-13T00:35:02;5.00;;;2.07;;
31061;SDS011;17724;53.546;9.974;2023-07-13T00:39:04;4.53;;;1.77;;
31061;SDS011;17724;53.546;9.974;2023-07-13T00:43:38;7.00;;;2.23;;
31061;SDS011;17724;53.546;9.974;2023-07-13T00:47:32;5.97;;;2.00;;
31061;SDS011;17724;53.546;9.974;2023-07-13T00:51:35;5.90;;;2.13;;
31061;SDS011;17724;53.546;9.974;2023-07-13T00:55:40;5.77;;;2.03;;
31061;SDS011;17724;53.546;9.974;2023-07-13T00:59:43;6.30;;;2.93;;
31061;SDS011;17724;53.546;9.974;2023-07-13T01:03:51;6.30;;;2.53;;
31061;SDS011;17724;53.546;9.974;2023-07-13T01:07:53;6.70;;;2.77;;
31061;SDS011;17724;53.546;9.974;2023-07-13T01:11:53;5.70;;;2.57;;
31061;SDS011;17724;53.546;9.974;2023-07-13T01:15:55;5.90;;;2.77;;
31061;SDS011;17724;53.546;9.974;2023-07-13T01:19:59;7.60;;;2.93;;
31061;SDS011;17724;53.546;9.974;2023-07-13T01:24:00;8.70;;;2.60;;
31061;SDS011;17724;53.546;9.974;2023-07-13T01:28:01;6.83;;;3.30;;
31061;SDS011;17724;53.546;9.974;2023-07-13T01:32:03;8.20;;;2.83;;
31061;SDS011;17724;53.546;9.974;2023-07-13T01:36:03;6.83;;;2.80;;
31061;SDS011;17724;53.546;9.974;2023-07-13T01:40:05;7.53;;;3.57;;
31061;SDS011;17724;53.546;9.974;2023-07-13T01:44:06;6.00;;;2.90;;
31061;SDS011;17724;53.546;9.974;2023-07-13T01:48:06;5.17;;;2.80;;
31061;SDS011;17724;53.546;9.974;2023-07-13T01:52:07;6.40;;;2.60;;
31061;SDS011;17724;53.546;9.974;2023-07-13T01:56:07;9.50;;;3.47;;
31061;SDS011;17724;53.546;9.974;2023-07-13T02:00:09;5.80;;;2.90;;
31061;SDS011;17724;53.546;9.974;2023-07-13T02:04:16;5.83;;;2.80;;
31061;SDS011;17724;53.546;9.974;2023-07-13T02:08:17;6.83;;;3.30;;
31061;SDS011;17724;53.546;9.974;2023-07-13T02:12:18;7.10;;;3.00;;
31061;SDS011;17724;53.546;9.974;2023-07-13T02:16:18;6.40;;;3.13;;
31061;SDS011;17724;53.546;9.974;2023-07-13T02:20:19;7.07;;;3.10;;
31061;SDS011;17724;53.546;9.974;2023-07-13T02:24:19;6.80;;;3.07;;
31061;SDS011;17724;53.546;9.974;2023-07-13T02:28:21;5.97;;;3.40;;
31061;SDS011;17724;53.546;9.974;2023-07-13T02:32:21;6.90;;;3.23;;
31061;SDS011;17724;53.546;9.974;2023-07-13T02:36:22;8.00;;;3.23;;
31061;SDS011;17724;53.546;9.974;2023-07-13T02:40:22;6.60;;;3.37;;
31061;SDS011;17724;53.546;9.974;2023-07-13T02:44:23;6.13;;;2.53;;
31061;SDS011;17724;53.546;9.974;2023-07-13T02:48:23;7.10;;;2.80;;
31061;SDS011;17724;53.546;9.974;2023-07-13T02:52:25;6.40;;;3.50;;
31061;SDS011;17724;53.546;9.974;2023-07-13T02:56:26;5.90;;;3.20;;
31061;SDS011;17724;53.546;9.974;2023-07-13T03:00:30;8.10;;;3.40;;
31061;SDS011;17724;53.546;9.974;2023-07-13T03:04:30;9.63;;;3.80;;
31061;SDS011;17724;53.546;9.974;2023-07-13T03:08:31;6.53;;;3.20;;
31061;SDS011;17724;53.546;9.974;2023-07-13T03:12:32;5.37;;;2.87;;
31061;SDS011;17724;53.546;9.974;2023-07-13T03:16:33;6.30;;;3.00;;
31061;SDS011;17724;53.546;9.974;2023-07-13T03:20:34;7.10;;;3.50;;
31061;SDS011;17724;53.546;9.974;2023-07-13T03:24:35;5.97;;;2.53;;
31061;SDS011;17724;53.546;9.974;2023-07-13T03:28:38;6.20;;;2.80;;
31061;SDS011;17724;53.546;9.974;2023-07-13T03:32:40;6.70;;;2.93;;
31061;SDS011;17724;53.546;9.974;2023-07-13T03:36:40;5.40;;;3.00;;
31061;SDS011;17724;53.546;9.974;2023-07-13T03:40:44;5.27;;;2.67;;
31061;SDS011;17724;53.546;9.974;2023-07-13T03:44:45;6.40;;;2.60;;
31061;SDS011;17724;53.546;9.974;2023-07-13T03:48:52;6.13;;;2.30;;
31061;SDS011;17724;53.546;9.974;2023-07-13T03:52:53;6.03;;;2.60;;
31061;SDS011;17724;53.546;9.974;2023-07-13T03:56:54;6.83;;;2.50;;
31061;SDS011;17724;53.546;9.974;2023-07-13T04:00:56;5.73;;;2.10;;
31061;SDS011;17724;53.546;9.974;2023-07-13T04:04:57;8.57;;;2.60;;
31061;SDS011;17724;53.546;9.974;2023-07-13T04:08:59;7.23;;;2.57;;
31061;SDS011;17724;53.546;9.974;2023-07-13T04:13:01;6.87;;;2.80;;
31061;SDS011;17724;53.546;9.974;2023-07-13T04:17:01;7.87;;;2.90;;
31061;SDS011;17724;53.546;9.974;2023-07-13T04:21:02;6.43;;;2.37;;
31061;SDS011;17724;53.546;9.974;2023-07-13T04:25:02;7.50;;;2.43;;
31061;SDS011;17724;53.546;9.974;2023-07-13T04:29:05;7.33;;;2.97;;
31061;SDS011;17724;53.546;9.974;2023-07-13T04:33:06;7.27;;;3.30;;
31061;SDS011;17724;53.546;9.974;2023-07-13T04:37:08;16.33;;;3.43;;
31061;SDS011;17724;53.546;9.974;2023-07-13T04:41:09;7.23;;;3.10;;
31061;SDS011;17724;53.546;9.974;2023-07-13T04:45:10;7.47;;;3.03;;
31061;SDS011;17724;53.546;9.974;2023-07-13T04:49:12;7.00;;;3.00;;
31061;SDS011;17724;53.546;9.974;2023-07-13T04:53:12;10.50;;;3.10;;
31061;SDS011;17724;53.546;9.974;2023-07-13T04:57:13;7.27;;;2.80;;
31061;SDS011;17724;53.546;9.974;2023-07-13T05:01:13;8.97;;;3.20;;
31061;SDS011;17724;53.546;9.974;2023-07-13T05:05:14;9.93;;;3.07;;
31061;SDS011;17724;53.546;9.974;2023-07-13T05:09:14;8.20;;;3.53;;
31061;SDS011;17724;53.546;9.974;2023-07-13T05:13:15;7.10;;;3.00;;
31061;SDS011;17724;53.546;9.974;2023-07-13T05:17:15;9.00;;;2.90;;
31061;SDS011;17724;53.546;9.974;2023-07-13T05:21:16;9.80;;;3.50;;
31061;SDS011;17724;53.546;9.974;2023-07-13T05:25:17;9.10;;;3.20;;
31061;SDS011;17724;53.546;9.974;2023-07-13T05:29:17;8.17;;;2.97;;
31061;SDS011;17724;53.546;9.974;2023-07-13T05:33:18;11.37;;;4.03;;
31061;SDS011;17724;53.546;9.974;2023-07-13T05:37:18;8.97;;;3.87;;
31061;SDS011;17724;53.546;9.974;2023-07-13T05:41:19;11.07;;;3.60;;
31061;SDS011;17724;53.546;9.974;2023-07-13T05:45:19;8.53;;;3.37;;
31061;SDS011;17724;53.546;9.974;2023-07-13T05:49:20;8.93;;;3.30;;
31061;SDS011;17724;53.546;9.974;2023-07-13T05:53:20;9.33;;;3.70;;
31061;SDS011;17724;53.546;9.974;2023-07-13T05:57:21;12.33;;;4.60;;
31061;SDS011;17724;53.546;9.974;2023-07-13T06:01:21;7.70;;;3.43;;
31061;SDS011;17724;53.546;9.974;2023-07-13T06:05:23;9.30;;;3.97;;
31061;SDS011;17724;53.546;9.974;2023-07-13T06:09:24;9.80;;;3.50;;
31061;SDS011;17724;53.546;9.974;2023-07-13T06:13:24;8.40;;;3.87;;
31061;SDS011;17724;53.546;9.974;2023-07-13T06:17:25;10.27;;;3.53;;
31061;SDS011;17724;53.546;9.974;2023-07-13T06:21:25;13.20;;;4.00;;
31061;SDS011;17724;53.546;9.974;2023-07-13T06:25:26;8.03;;;3.60;;
31061;SDS011;17724;53.546;9.974;2023-07-13T06:29:27;10.40;;;3.60;;
31061;SDS011;17724;53.546;9.974;2023-07-13T06:33:28;12.43;;;4.10;;
31061;SDS011;17724;53.546;9.974;2023-07-13T06:37:29;9.60;;;3.83;;
31061;SDS011;17724;53.546;9.974;2023-07-13T06:41:29;14.80;;;4.57;;
31061;SDS011;17724;53.546;9.974;2023-07-13T06:45:34;9.57;;;3.60;;
31061;SDS011;17724;53.546;9.974;2023-07-13T06:49:40;8.80;;;3.20;;
31061;SDS011;17724;53.546;9.974;2023-07-13T06:53:40;10.57;;;3.60;;
31061;SDS011;17724;53.546;9.974;2023-07-13T06:57:43;11.43;;;3.80;;
31061;SDS011;17724;53.546;9.974;2023-07-13T07:01:44;13.33;;;3.70;;
31061;SDS011;17724;53.546;9.974;2023-07-13T07:05:44;9.63;;;3.43;;
31061;SDS011;17724;53.546;9.974;2023-07-13T07:09:44;8.00;;;3.10;;
31061;SDS011;17724;53.546;9.974;2023-07-13T07:13:45;10.10;;;3.33;;
31061;SDS011;17724;53.546;9.974;2023-07-13T07:17:45;9.00;;;3.50;;
31061;SDS011;17724;53.546;9.974;2023-07-13T07:21:46;8.13;;;2.83;;
31061;SDS011;17724;53.546;9.974;2023-07-13T07:25:47;9.20;;;3.33;;
31061;SDS011;17724;53.546;9.974;2023-07-13T07:29:47;9.30;;;3.33;;
31061;SDS011;17724;53.546;9.974;2023-07-13T07:33:48;8.67;;;3.40;;
31061;SDS011;17724;53.546;9.974;2023-07-13T07:37:49;13.87;;;3.30;;
31061;SDS011;17724;53.546;9.974;2023-07-13T07:41:50;9.23;;;3.37;;
31061;SDS011;17724;53.546;9.974;2023-07-13T07:45:50;8.97;;;2.93;;
31061;SDS011;17724;53.546;9.974;2023-07-13T07:49:51;11.17;;;4.87;;
31061;SDS011;17724;53.546;9.974;2023-07-13T07:53:51;9.13;;;4.07;;
31061;SDS011;17724;53.546;9.974;2023-07-13T07:57:52;7.97;;;2.70;;
31061;SDS011;17724;53.546;9.974;2023-07-13T08:01:52;9.80;;;3.17;;
31061;SDS011;17724;53.546;9.974;2023-07-13T08:05:53;12.80;;;3.50;;
31061;SDS011;17724;53.546;9.974;2023-07-13T08:09:54;9.17;;;3.20;;
31061;SDS011;17724;53.546;9.974;2023-07-13T08:13:54;9.53;;;2.50;;
31061;SDS011;17724;53.546;9.974;2023-07-13T08:17:55;8.13;;;3.33;;
31061;SDS011;17724;53.546;9.974;2023-07-13T08:21:56;8.10;;;2.50;;
31061;SDS011;17724;53.546;9.974;2023-07-13T08:25:56;7.77;;;2.43;;
31061;SDS011;17724;53.546;9.974;2023-07-13T08:29:57;6.70;;;2.83;;
31061;SDS011;17724;53.546;9.974;2023-07-13T08:33:57;9.00;;;2.93;;
31061;SDS011;17724;53.546;9.974;2023-07-13T08:37:58;13.80;;;3.30;;
31061;SDS011;17724;53.546;9.974;2023-07-13T08:42:01;7.60;;;3.00;;
31061;SDS011;17724;53.546;9.974;2023-07-13T08:50:13;9.43;;;3.13;;
31061;SDS011;17724;53.546;9.974;2023-07-13T08:58:28;9.17;;;2.70;;
31061;SDS011;17724;53.546;9.974;2023-07-13T09:02:41;6.70;;;2.30;;
31061;SDS011;17724;53.546;9.974;2023-07-13T09:06:55;8.90;;;2.70;;
31061;SDS011;17724;53.546;9.974;2023-07-13T09:11:23;10.17;;;2.50;;
31061;SDS011;17724;53.546;9.974;2023-07-13T09:15:31;7.70;;;2.30;;
31061;SDS011;17724;53.546;9.974;2023-07-13T09:19:35;8.73;;;3.13;;
31061;SDS011;17724;53.546;9.974;2023-07-13T09:23:36;7.50;;;3.03;;
31061;SDS011;17724;53.546;9.974;2023-07-13T09:27:41;6.70;;;2.37;;
31061;SDS011;17724;53.546;9.974;2023-07-13T09:31:45;6.00;;;2.10;;
31061;SDS011;17724;53.546;9.974;2023-07-13T09:35:52;9.73;;;2.37;;
31061;SDS011;17724;53.546;9.974;2023-07-13T09:39:53;5.73;;;2.13;;
31061;SDS011;17724;53.546;9.974;2023-07-13T09:48:13;6.60;;;2.10;;
31061;SDS011;17724;53.546;9.974;2023-07-13T09:52:15;4.27;;;1.57;;
31061;SDS011;17724;53.546;9.974;2023-07-13T09:56:23;8.83;;;2.60;;
31061;SDS011;17724;53.546;9.974;2023-07-13T10:00:27;5.97;;;1.87;;
31061;SDS011;17724;53.546;9.974;2023-07-13T10:04:33;7.73;;;2.37;;
31061;SDS011;17724;53.546;9.974;2023-07-13T10:08:34;26.83;;;4.27;;
31061;SDS011;17724;53.546;9.974;2023-07-13T10:12:36;5.87;;;1.97;;
31061;SDS011;17724;53.546;9.974;2023-07-13T10:16:39;8.87;;;2.50;;
31061;SDS011;17724;53.546;9.974;2023-07-13T10:20:43;7.97;;;2.80;;
31061;SDS011;17724;53.546;9.974;2023-07-13T10:24:44;9.70;;;5.07;;
31061;SDS011;17724;53.546;9.974;2023-07-13T10:28:45;35.57;;;23.37;;
31061;SDS011;17724;53.546;9.974;2023-07-13T10:32:49;42.43;;;27.83;;
31061;SDS011;17724;53.546;9.974;2023-07-13T10:36:51;18.60;;;10.27;;
31061;SDS011;17724;53.546;9.974;2023-07-13T10:40:55;24.93;;;17.00;;
31061;SDS011;17724;53.546;9.974;2023-07-13T10:45:01;16.47;;;7.17;;
31061;SDS011;17724;53.546;9.974;2023-07-13T10:49:12;32.10;;;18.47;;
31061;SDS011;17724;53.546;9.974;2023-07-13T10:53:20;25.70;;;12.40;;
31061;SDS011;17724;53.546;9.974;2023-07-13T10:57:27;29.90;;;16.07;;
31061;SDS011;17724;53.546;9.974;2023-07-13T11:01:38;18.27;;;7.90;;
31061;SDS011;17724;53.546;9.974;2023-07-13T11:05:40;38.07;;;25.03;;
31061;SDS011;17724;53.546;9.974;2023-07-13T11:09:41;19.43;;;8.00;;
31061;SDS011;17724;53.546;9.974;2023-07-13T11:17:50;11.90;;;4.73;;
31061;SDS011;17724;53.546;9.974;2023-07-13T11:26:37;11.30;;;4.30;;
31061;SDS011;17724;53.546;9.974;2023-07-13T11:35:14;33.13;;;19.97;;
31061;SDS011;17724;53.546;9.974;2023-07-13T11:39:28;36.33;;;29.20;;
31061;SDS011;17724;53.546;9.974;2023-07-13T11:43:35;37.40;;;26.30;;
31061;SDS011;17724;53.546;9.974;2023-07-13T11:47:39;17.73;;;9.17;;
31061;SDS011;17724;53.546;9.974;2023-07-13T11:51:40;35.97;;;23.53;;
31061;SDS011;17724;53.546;9.974;2023-07-13T11:55:41;19.33;;;11.80;;
31061;SDS011;17724;53.546;9.974;2023-07-13T11:59:42;19.57;;;13.07;;
31061;SDS011;17724;53.546;9.974;2023-07-13T12:03:43;11.47;;;6.53;;
31061;SDS011;17724;53.546;9.974;2023-07-13T12:07:46;24.33;;;15.70;;
31061;SDS011;17724;53.546;9.974;2023-07-13T12:11:48;16.20;;;8.77;;
31061;SDS011;17724;53.546;9.974;2023-07-13T12:15:48;21.00;;;11.70;;
31061;SDS011;17724;53.546;9.974;2023-07-13T12:19:49;11.27;;;5.53;;
31061;SDS011;17724;53.546;9.974;2023-07-13T12:23:51;10.50;;;4.40;;
31061;SDS011;17724;53.546;9.974;2023-07-13T12:27:52;27.00;;;14.37;;
31061;SDS011;17724;53.546;9.974;2023-07-13T12:31:52;23.47;;;12.90;;
31061;SDS011;17724;53.546;9.974;2023-07-13T12:35:53;25.70;;;12.83;;
31061;SDS011;17724;53.546;9.974;2023-07-13T12:39:54;11.60;;;4.93;;
31061;SDS011;17724;53.546;9.974;2023-07-13T12:43:55;48.57;;;27.27;;
31061;SDS011;17724;53.546;9.974;2023-07-13T12:47:57;40.00;;;28.00;;
31061;SDS011;17724;53.546;9.974;2023-07-13T12:52:04;13.93;;;7.40;;
31061;SDS011;17724;53.546;9.974;2023-07-13T12:56:19;12.00;;;5.20;;
31061;SDS011;17724;53.546;9.974;2023-07-13T13:00:31;17.23;;;8.57;;
31061;SDS011;17724;53.546;9.974;2023-07-13T13:04:40;12.53;;;6.27;;
31061;SDS011;17724;53.546;9.974;2023-07-13T13:08:44;17.30;;;7.60;;
31061;SDS011;17724;53.546;9.974;2023-07-13T13:12:46;18.13;;;8.40;;
31061;SDS011;17724;53.546;9.974;2023-07-13T13:16:47;18.97;;;8.33;;
31061;SDS011;17724;53.546;9.974;2023-07-13T13:20:50;11.20;;;5.70;;
31061;SDS011;17724;53.546;9.974;2023-07-13T13:24:51;16.47;;;6.90;;
31061;SDS011;17724;53.546;9.974;2023-07-13T13:28:51;12.40;;;6.00;;
31061;SDS011;17724;53.546;9.974;2023-07-13T13:32:52;20.23;;;8.80;;
31061;SDS011;17724;53.546;9.974;2023-07-13T13:36:53;13.10;;;6.20;;
31061;SDS011;17724;53.546;9.974;2023-07-13T13:40:54;29.47;;;14.17;;
31061;SDS011;17724;53.546;9.974;2023-07-13T13:44:56;15.07;;;7.23;;
31061;SDS011;17724;53.546;9.974;2023-07-13T13:48:56;22.67;;;13.90;;
31061;SDS011;17724;53.546;9.974;2023-07-13T13:52:57;12.60;;;5.43;;
31061;SDS011;17724;53.546;9.974;2023-07-13T13:56:58;9.63;;;4.00;;
31061;SDS011;17724;53.546;9.974;2023-07-13T14:00:59;8.23;;;4.60;;
31061;SDS011;17724;53.546;9.974;2023-07-13T14:05:03;36.80;;;24.47;;
31061;SDS011;17724;53.546;9.974;2023-07-13T14:09:07;15.80;;;9.90;;
31061;SDS011;17724;53.546;9.974;2023-07-13T14:13:17;28.87;;;19.03;;
31061;SDS011;17724;53.546;9.974;2023-07-13T14:17:21;15.17;;;9.97;;
31061;SDS011;17724;53.546;9.974;2023-07-13T14:21:24;24.90;;;13.90;;
31061;SDS011;17724;53.546;9.974;2023-07-13T14:25:24;30.70;;;22.47;;
31061;SDS011;17724;53.546;9.974;2023-07-13T14:29:28;13.10;;;6.70;;
31061;SDS011;17724;53.546;9.974;2023-07-13T14:33:28;16.50;;;10.40;;
31061;SDS011;17724;53.546;9.974;2023-07-13T14:37:30;47.40;;;21.83;;
31061;SDS011;17724;53.546;9.974;2023-07-13T14:41:30;12.00;;;5.93;;
31061;SDS011;17724;53.546;9.974;2023-07-13T14:45:31;18.10;;;10.07;;
31061;SDS011;17724;53.546;9.974;2023-07-13T14:49:33;17.33;;;11.07;;
31061;SDS011;17724;53.546;9.974;2023-07-13T14:53:36;22.97;;;12.43;;
31061;SDS011;17724;53.546;9.974;2023-07-13T14:57:38;15.60;;;7.83;;
31061;SDS011;17724;53.546;9.974;2023-07-13T15:01:39;8.23;;;3.60;;
31061;SDS011;17724;53.546;9.974;2023-07-13T15:05:40;12.63;;;5.63;;
31061;SDS011;17724;53.546;9.974;2023-07-13T15:09:41;8.80;;;3.90;;
31061;SDS011;17724;53.546;9.974;2023-07-13T15:13:41;9.33;;;4.90;;
31061;SDS011;17724;53.546;9.974;2023-07-13T15:17:45;14.80;;;6.93;;
31061;SDS011;17724;53.546;9.974;2023-07-13T15:21:47;20.20;;;8.80;;
31061;SDS011;17724;53.546;9.974;2023-07-13T15:25:48;17.37;;;7.27;;
31061;SDS011;17724;53.546;9.974;2023-07-13T15:29:49;6.70;;;2.33;;
31061;SDS011;17724;53.546;9.974;2023-07-13T15:33:50;9.60;;;3.20;;
31061;SDS011;17724;53.546;9.974;2023-07-13T15:37:53;19.60;;;9.10;;
31061;SDS011;17724;53.546;9.974;2023-07-13T15:41:54;10.97;;;4.80;;
31061;SDS011;17724;53.546;9.974;2023-07-13T15:45:55;11.73;;;5.40;;
31061;SDS011;17724;53.546;9.974;2023-07-13T15:49:55;32.50;;;22.73;;
31061;SDS011;17724;53.546;9.974;2023-07-13T15:53:57;51.30;;;46.23;;
31061;SDS011;17724;53.546;9.974;2023-07-13T15:58:04;14.53;;;8.43;;
31061;SDS011;17724;53.546;9.974;2023-07-13T16:02:16;26.83;;;15.60;;
31061;SDS011;17724;53.546;9.974;2023-07-13T16:06:19;22.40;;;13.00;;
31061;SDS011;17724;53.546;9.974;2023-07-13T16:10:24;33.33;;;25.30;;
31061;SDS011;17724;53.546;9.974;2023-07-13T16:14:36;14.90;;;9.37;;
31061;SDS011;17724;53.546;9.974;2023-07-13T16:18:36;17.10;;;8.33;;
31061;SDS011;17724;53.546;9.974;2023-07-13T16:22:37;12.70;;;8.30;;
31061;SDS011;17724;53.546;9.974;2023-07-13T16:26:39;20.80;;;16.57;;
31061;SDS011;17724;53.546;9.974;2023-07-13T16:30:40;32.70;;;23.00;;
31061;SDS011;17724;53.546;9.974;2023-07-13T16:34:42;11.00;;;7.60;;
31061;SDS011;17724;53.546;9.974;2023-07-13T16:38:44;15.40;;;10.57;;
31061;SDS011;17724;53.546;9.974;2023-07-13T16:42:45;55.40;;;39.60;;
31061;SDS011;17724;53.546;9.974;2023-07-13T16:46:49;42.37;;;37.77;;
31061;SDS011;17724;53.546;9.974;2023-07-13T16:50:56;33.10;;;25.80;;
31061;SDS011;17724;53.546;9.974;2023-07-13T16:54:57;34.13;;;29.50;;
31061;SDS011;17724;53.546;9.974;2023-07-13T16:58:58;56.10;;;47.27;;
31061;SDS011;17724;53.546;9.974;2023-07-13T17:03:00;25.43;;;22.47;;
31061;SDS011;17724;53.546;9.974;2023-07-13T17:07:03;43.17;;;31.27;;
31061;SDS011;17724;53.546;9.974;2023-07-13T17:11:05;13.63;;;7.70;;
31061;SDS011;17724;53.546;9.974;2023-07-13T17:15:08;32.27;;;27.43;;
31061;SDS011;17724;53.546;9.974;2023-07-13T17:19:11;38.50;;;33.90;;
31061;SDS011;17724;53.546;9.974;2023-07-13T17:23:14;57.67;;;51.57;;
31061;SDS011;17724;53.546;9.974;2023-07-13T17:27:16;62.27;;;55.83;;
31061;SDS011;17724;53.546;9.974;2023-07-13T17:31:17;34.40;;;27.80;;
31061;SDS011;17724;53.546;9.974;2023-07-13T17:35:25;16.03;;;11.37;;
31061;SDS011;17724;53.546;9.974;2023-07-13T17:39:30;25.17;;;16.87;;
31061;SDS011;17724;53.546;9.974;2023-07-13T17:43:31;64.90;;;54.70;;
31061;SDS011;17724;53.546;9.974;2023-07-13T17:47:31;35.47;;;29.27;;
31061;SDS011;17724;53.546;9.974;2023-07-13T17:51:32;31.77;;;20.90;;
31061;SDS011;17724;53.546;9.974;2023-07-13T17:55:33;61.63;;;44.20;;
31061;SDS011;17724;53.546;9.974;2023-07-13T17:59:34;64.73;;;53.30;;
31061;SDS011;17724;53.546;9.974;2023-07-13T18:03:35;47.17;;;32.60;;
31061;SDS011;17724;53.546;9.974;2023-07-13T18:07:44;16.03;;;7.70;;
31061;SDS011;17724;53.546;9.974;2023-07-13T18:11:46;21.60;;;10.77;;
31061;SDS011;17724;53.546;9.974;2023-07-13T18:15:47;23.60;;;16.03;;
31061;SDS011;17724;53.546;9.974;2023-07-13T18:19:50;76.03;;;67.77;;
31061;SDS011;17724;53.546;9.974;2023-07-13T18:23:51;40.80;;;28.00;;
31061;SDS011;17724;53.546;9.974;2023-07-13T18:27:54;98.30;;;79.80;;
31061;SDS011;17724;53.546;9.974;2023-07-13T18:31:55;47.77;;;35.93;;
31061;SDS011;17724;53.546;9.974;2023-07-13T18:35:58;49.97;;;35.50;;
31061;SDS011;17724;53.546;9.974;2023-07-13T18:40:00;13.80;;;7.97;;
31061;SDS011;17724;53.546;9.974;2023-07-13T18:44:00;14.30;;;7.67;;
31061;SDS011;17724;53.546;9.974;2023-07-13T18:48:01;24.63;;;12.90;;
31061;SDS011;17724;53.546;9.974;2023-07-13T18:52:03;37.80;;;22.83;;
31061;SDS011;17724;53.546;9.974;2023-07-13T18:56:04;24.50;;;11.70;;
31061;SDS011;17724;53.546;9.974;2023-07-13T19:00:05;21.87;;;15.40;;
31061;SDS011;17724;53.546;9.974;2023-07-13T19:08:27;8.07;;;5.33;;
31061;SDS011;17724;53.546;9.974;2023-07-13T19:12:29;17.60;;;13.80;;
31061;SDS011;17724;53.546;9.974;2023-07-13T19:16:31;17.23;;;12.90;;
31061;SDS011;17724;53.546;9.974;2023-07-13T19:20:32;21.43;;;19.30;;
31061;SDS011;17724;53.546;9.974;2023-07-13T19:24:33;9.30;;;7.40;;
31061;SDS011;17724;53.546;9.974;2023-07-13T19:28:37;36.80;;;27.30;;
31061;SDS011;17724;53.546;9.974;2023-07-13T19:32:40;18.23;;;10.03;;
31061;SDS011;17724;53.546;9.974;2023-07-13T19:36:42;63.73;;;44.93;;
31061;SDS011;17724;53.546;9.974;2023-07-13T19:40:43;24.13;;;13.97;;
31061;SDS011;17724;53.546;9.974;2023-07-13T19:44:44;39.97;;;26.17;;
31061;SDS011;17724;53.546;9.974;2023-07-13T19:48:45;29.57;;;19.93;;
31061;SDS011;17724;53.546;9.974;2023-07-13T19:52:47;21.23;;;15.67;;
31061;SDS011;17724;53.546;9.974;2023-07-13T19:56:50;56.67;;;42.03;;
31061;SDS011;17724;53.546;9.974;2023-07-13T20:00:51;32.23;;;21.43;;
31061;SDS011;17724;53.546;9.974;2023-07-13T20:04:51;27.30;;;17.97;;
31061;SDS011;17724;53.546;9.974;2023-07-13T20:08:52;45.93;;;28.70;;
31061;SDS011;17724;53.546;9.974;2023-07-13T20:12:53;17.27;;;10.00;;
31061;SDS011;17724;53.546;9.974;2023-07-13T20:16:58;23.73;;;14.30;;
31061;SDS011;17724;53.546;9.974;2023-07-13T20:21:03;8.70;;;4.17;;
31061;SDS011;17724;53.546;9.974;2023-07-13T20:25:09;10.27;;;6.40;;
31061;SDS011;17724;53.546;9.974;2023-07-13T20:29:15;11.40;;;8.60;;
31061;SDS011;17724;53.546;9.974;2023-07-13T20:33:19;38.77;;;24.40;;
31061;SDS011;17724;53.546;9.974;2023-07-13T20:37:25;14.87;;;8.10;;
31061;SDS011;17724;53.546;9.974;2023-07-13T20:41:38;8.37;;;3.77;;
31061;SDS011;17724;53.546;9.974;2023-07-13T20:45:39;6.67;;;2.60;;
31061;SDS011;17724;53.546;9.974;2023-07-13T20:49:39;5.57;;;2.40;;
31061;SDS011;17724;53.546;9.974;2023-07-13T20:53:40;7.00;;;2.50;;
31061;SDS011;17724;53.546;9.974;2023-07-13T20:57:42;7.30;;;2.23;;
31061;SDS011;17724;53.546;9.974;2023-07-13T21:01:43;6.77;;;2.47;;
31061;SDS011;17724;53.546;9.974;2023-07-13T21:05:43;5.87;;;2.93;;
31061;SDS011;17724;53.546;9.974;2023-07-13T21:09:44;5.57;;;2.27;;
31061;SDS011;17724;53.546;9.974;2023-07-13T21:13:44;6.30;;;3.33;;
31061;SDS011;17724;53.546;9.974;2023-07-13T21:17:46;8.13;;;3.27;;
31061;SDS011;17724;53.546;9.974;2023-07-13T21:21:48;6.00;;;2.30;;
31061;SDS011;17724;53.546;9.974;2023-07-13T21:25:49;8.77;;;2.73;;
31061;SDS011;17724;53.546;9.974;2023-07-13T21:29:50;5.30;;;2.60;;
31061;SDS011;17724;53.546;9.974;2023-07-13T21:33:53;6.50;;;2.77;;
31061;SDS011;17724;53.546;9.974;2023-07-13T21:37:57;6.37;;;2.80;;
31061;SDS011;17724;53.546;9.974;2023-07-13T21:42:01;6.20;;;2.90;;
31061;SDS011;17724;53.546;9.974;2023-07-13T21:46:01;6.00;;;2.90;;
31061;SDS011;17724;53.546;9.974;2023-07-13T21:50:02;5.90;;;2.93;;
31061;SDS011;17724;53.546;9.974;2023-07-13T21:54:04;7.90;;;2.80;;
31061;SDS011;17724;53.546;9.974;2023-07-13T21:58:50;4.90;;;2.30;;
31061;SDS011;17724;53.546;9.974;2023-07-13T22:02:44;5.57;;;2.23;;
31061;SDS011;17724;53.546;9.974;2023-07-13T22:06:45;5.80;;;2.63;;
31061;SDS011;17724;53.546;9.974;2023-07-13T22:10:48;7.40;;;2.70;;
31061;SDS011;17724;53.546;9.974;2023-07-13T22:14:49;6.20;;;2.80;;
31061;SDS011;17724;53.546;9.974;2023-07-13T22:18:51;7.50;;;2.83;;
31061;SDS011;17724;53.546;9.974;2023-07-13T22:22:53;6.20;;;2.93;;
31061;SDS011;17724;53.546;9.974;2023-07-13T22:26:53;6.70;;;3.20;;
31061;SDS011;17724;53.546;9.974;2023-07-13T22:30:54;7.10;;;3.13;;
31061;SDS011;17724;53.546;9.974;2023-07-13T22:34:56;7.37;;;3.10;;
31061;SDS011;17724;53.546;9.974;2023-07-13T22:38:56;7.03;;;3.00;;
31061;SDS011;17724;53.546;9.974;2023-07-13T22:42:56;6.53;;;2.90;;
31061;SDS011;17724;53.546;9.974;2023-07-13T22:46:57;6.57;;;2.87;;
31061;SDS011;17724;53.546;9.974;2023-07-13T22:50:57;8.23;;;3.37;;
31061;SDS011;17724;53.546;9.974;2023-07-13T22:54:58;6.37;;;3.47;;
31061;SDS011;17724;53.546;9.974;2023-07-13T22:58:58;7.57;;;3.70;;
31061;SDS011;17724;53.546;9.974;2023-07-13T23:02:59;7.83;;;4.43;;
31061;SDS011;17724;53.546;9.974;2023-07-13T23:07:00;7.80;;;4.00;;
31061;SDS011;17724;53.546;9.974;2023-07-13T23:11:01;7.70;;;4.00;;
31061;SDS011;17724;53.546;9.974;2023-07-13T23:15:02;7.80;;;4.30;;
31061;SDS011;17724;53.546;9.974;2023-07-13T23:19:03;7.00;;;3.43;;
31061;SDS011;17724;53.546;9.974;2023-07-13T23:23:03;7.70;;;3.53;;
31061;SDS011;17724;53.546;9.974;2023-07-13T23:27:04;8.17;;;4.43;;
31061;SDS011;17724;53.546;9.974;2023-07-13T23:31:04;8.90;;;4.67;;
31061;SDS011;17724;53.546;9.974;2023-07-13T23:35:08;7.47;;;3.73;;
31061;SDS011;17724;53.546;9.974;2023-07-13T23:39:16;7.13;;;4.50;;
31061;SDS011;17724;53.546;9.974;2023-07-13T23:43:18;7.00;;;3.53;;
31061;SDS011;17724;53.546;9.974;2023-07-13T23:47:18;8.23;;;3.77;;
31061;SDS011;17724;53.546;9.974;2023-07-13T23:51:19;8.10;;;3.67;;
31061;SDS011;17724;53.546;9.974;2023-07-13T23:55:23;7.60;;;4.43;;
31061;SDS011;17724;53.546;9.974;2023-07-13T23:59:28;6.90;;;3.40;;
